createdAt,value
2019-04-27T00:00:46.492Z,14.83
2019-04-27T00:03:19.046Z,14.90
2019-04-27T00:05:59.440Z,15.58
2019-04-27T00:08:38.841Z,16.40
2019-04-27T00:11:09.595Z,16.73
2019-04-27T00:13:43.986Z,18.23
2019-04-27T00:16:18.531Z,18.48
2019-04-27T00:19:10.871Z,21.30
2019-04-27T00:21:48.055Z,20.20
2019-04-27T00:24:20.746Z,23.07
2019-04-27T00:26:54.073Z,21.07
2019-04-27T00:29:26.971Z,22.27
2019-04-27T00:31:59.706Z,23.83
2019-04-27T00:34:33.941Z,25.53
2019-04-27T00:37:11.368Z,28.27
2019-04-27T00:39:45.857Z,28.53
2019-04-27T00:42:18.787Z,31.03
2019-04-27T00:44:51.502Z,29.70
2019-04-27T00:47:24.248Z,29.07
2019-04-27T00:49:56.949Z,26.65
2019-04-27T00:52:29.688Z,27.53
2019-04-27T00:55:03.143Z,28.90
2019-04-27T00:57:40.353Z,28.00
2019-04-27T01:00:31.129Z,26.47
2019-04-27T01:03:05.664Z,27.07
2019-04-27T01:05:38.235Z,28.80
2019-04-27T01:08:10.869Z,27.07
2019-04-27T01:10:44.201Z,26.67
2019-04-27T01:13:17.079Z,24.97
2019-04-27T01:15:49.649Z,25.27
2019-04-27T01:18:22.399Z,26.40
2019-04-27T01:20:54.925Z,25.27
2019-04-27T01:23:29.394Z,24.53
2019-04-27T01:26:20.755Z,25.33
2019-04-27T01:29:02.260Z,22.93
2019-04-27T01:31:36.150Z,24.13
2019-04-27T01:34:10.311Z,25.87
2019-04-27T01:36:43.146Z,24.93
2019-04-27T01:39:18.624Z,22.93
2019-04-27T01:41:51.584Z,21.50
2019-04-27T01:44:25.378Z,22.50
2019-04-27T01:46:59.868Z,21.97
2019-04-27T01:49:32.582Z,21.77
2019-04-27T01:52:05.776Z,22.63
2019-04-27T01:54:40.807Z,23.90
2019-04-27T01:57:12.716Z,21.13
2019-04-27T01:59:45.436Z,23.10
2019-04-27T02:02:34.826Z,22.93
2019-04-27T02:05:15.077Z,22.00
2019-04-27T02:07:53.908Z,22.63
2019-04-27T02:10:26.537Z,22.80
2019-04-27T02:12:59.089Z,23.17
2019-04-27T02:15:31.696Z,21.97
2019-04-27T02:18:04.737Z,21.03
2019-04-27T02:20:38.776Z,21.90
2019-04-27T02:23:11.823Z,21.80
2019-04-27T02:25:44.812Z,21.40
2019-04-27T02:28:22.923Z,18.53
2019-04-27T02:31:13.108Z,19.17
2019-04-27T02:33:49.822Z,19.17
2019-04-27T02:36:21.843Z,19.87
2019-04-27T02:38:54.393Z,18.60
2019-04-27T02:41:27.003Z,19.53
2019-04-27T02:44:09.684Z,18.63
2019-04-27T02:46:42.693Z,18.83
2019-04-27T02:49:15.078Z,19.30
2019-04-27T02:51:59.476Z,17.70
2019-04-27T02:54:32.648Z,18.27
2019-04-27T02:57:05.333Z,19.20
2019-04-27T02:59:39.899Z,17.40
2019-04-27T03:02:12.003Z,16.67
2019-04-27T03:04:44.676Z,16.60
2019-04-27T03:07:17.227Z,16.10
2019-04-27T03:09:51.034Z,13.80
2019-04-27T03:12:25.577Z,14.53
2019-04-27T03:15:14.836Z,13.97
2019-04-27T03:18:05.337Z,14.23
2019-04-27T03:20:40.306Z,14.77
2019-04-27T03:23:13.724Z,14.30
2019-04-27T03:25:50.381Z,12.23
2019-04-27T03:28:22.288Z,14.37
2019-04-27T03:30:54.873Z,13.17
2019-04-27T03:33:31.979Z,13.43
2019-04-27T03:36:03.097Z,12.10
2019-04-27T03:38:35.973Z,12.90
2019-04-27T03:41:09.525Z,14.10
2019-04-27T03:43:42.731Z,13.70
2019-04-27T03:46:15.272Z,12.73
2019-04-27T03:48:49.727Z,12.90
2019-04-27T03:51:26.648Z,12.73
2019-04-27T03:54:01.062Z,14.33
2019-04-27T03:56:39.554Z,13.13
2019-04-27T03:59:16.879Z,13.67
2019-04-27T04:01:50.609Z,14.07
2019-04-27T04:04:23.537Z,14.13
2019-04-27T04:07:13.704Z,14.23
2019-04-27T04:09:46.532Z,13.97
2019-04-27T04:12:20.647Z,13.20
2019-04-27T04:14:53.553Z,14.20
2019-04-27T04:17:27.102Z,14.70
2019-04-27T04:20:01.890Z,13.83
2019-04-27T04:22:34.971Z,12.90
2019-04-27T04:25:10.699Z,12.80
2019-04-27T04:27:43.174Z,13.07
2019-04-27T04:30:16.257Z,13.43
2019-04-27T04:32:49.809Z,12.37
2019-04-27T04:35:25.520Z,12.00
2019-04-27T04:38:00.228Z,12.60
2019-04-27T04:40:40.397Z,11.23
2019-04-27T04:43:14.915Z,11.70
2019-04-27T04:45:59.755Z,13.07
2019-04-27T04:48:32.676Z,11.90
2019-04-27T04:51:05.511Z,12.67
2019-04-27T04:53:40.000Z,11.50
2019-04-27T04:56:12.344Z,10.40
2019-04-27T04:58:45.133Z,11.97
2019-04-27T05:01:19.647Z,11.50
2019-04-27T05:03:52.236Z,11.80
2019-04-27T05:06:25.561Z,11.20
2019-04-27T05:08:59.528Z,10.40
2019-04-27T05:11:32.361Z,10.63
2019-04-27T05:14:05.050Z,11.00
2019-04-27T05:16:39.065Z,10.67
2019-04-27T05:19:11.810Z,10.83
2019-04-27T05:21:44.451Z,10.73
2019-04-27T05:24:19.250Z,10.40
2019-04-27T05:26:51.806Z,9.73
2019-04-27T05:29:24.547Z,9.63
2019-04-27T05:31:59.055Z,9.67
2019-04-27T05:34:34.550Z,9.90
2019-04-27T05:37:08.905Z,9.60
2019-04-27T05:39:42.736Z,9.13
2019-04-27T05:42:19.867Z,8.90
2019-04-27T05:45:04.181Z,8.17
2019-04-27T05:47:43.394Z,7.50
2019-04-27T05:50:18.296Z,6.73
2019-04-27T05:52:50.516Z,6.57
2019-04-27T05:55:23.180Z,6.83
2019-04-27T05:57:55.990Z,7.27
2019-04-27T06:00:29.299Z,6.63
2019-04-27T06:03:02.206Z,6.83
2019-04-27T06:05:34.681Z,6.87
2019-04-27T06:08:08.782Z,6.83
2019-04-27T06:10:41.400Z,6.73
2019-04-27T06:13:14.091Z,7.53
2019-04-27T06:15:46.868Z,6.27
2019-04-27T06:18:20.790Z,6.97
2019-04-27T06:20:55.878Z,7.23
2019-04-27T06:23:28.915Z,7.77
2019-04-27T06:26:01.985Z,7.87
2019-04-27T06:28:34.850Z,6.70
2019-04-27T06:31:08.767Z,7.23
2019-04-27T06:33:41.678Z,7.93
2019-04-27T06:36:14.395Z,7.67
2019-04-27T06:38:48.558Z,7.73
2019-04-27T06:41:21.562Z,7.60
2019-04-27T06:43:54.365Z,7.40
2019-04-27T06:46:28.655Z,7.17
2019-04-27T06:49:02.316Z,8.37
2019-04-27T06:51:35.050Z,8.17
2019-04-27T06:54:09.287Z,7.77
2019-04-27T06:56:42.326Z,9.00
2019-04-27T06:59:15.029Z,8.30
2019-04-27T07:01:48.950Z,7.90
2019-04-27T07:04:21.574Z,8.00
2019-04-27T07:06:56.242Z,8.20
2019-04-27T07:09:29.466Z,7.50
2019-04-27T07:12:02.191Z,6.93
2019-04-27T07:14:34.861Z,7.80
2019-04-27T07:17:08.946Z,8.40
2019-04-27T07:19:43.210Z,7.73
2019-04-27T07:22:15.895Z,7.60
2019-04-27T07:24:49.079Z,6.93
2019-04-27T07:27:22.830Z,7.20
2019-04-27T07:29:55.625Z,8.67
2019-04-27T07:32:29.205Z,7.40
2019-04-27T07:35:01.920Z,7.83
2019-04-27T07:37:34.560Z,8.23
2019-04-27T07:40:09.041Z,7.50
2019-04-27T07:42:45.924Z,8.10
2019-04-27T07:45:17.306Z,8.20
2019-04-27T07:47:51.305Z,8.20
2019-04-27T07:50:24.095Z,8.47
2019-04-27T07:52:58.550Z,8.17
2019-04-27T07:55:31.156Z,8.10
2019-04-27T07:58:05.239Z,7.97
2019-04-27T08:00:39.496Z,9.43
2019-04-27T08:03:12.341Z,9.03
2019-04-27T08:05:44.950Z,7.67
2019-04-27T08:08:18.970Z,8.70
2019-04-27T08:10:52.135Z,8.33
2019-04-27T08:13:24.827Z,7.67
2019-04-27T08:15:58.964Z,8.57
2019-04-27T08:18:31.846Z,8.37
2019-04-27T08:21:04.710Z,8.20
2019-04-27T08:23:37.195Z,7.83
2019-04-27T08:26:11.590Z,7.63
2019-04-27T08:28:51.245Z,7.73
2019-04-27T08:31:25.665Z,8.20
2019-04-27T08:33:58.579Z,7.97
2019-04-27T08:36:33.355Z,7.67
2019-04-27T08:39:08.921Z,7.53
2019-04-27T08:41:41.971Z,8.00
2019-04-27T08:44:14.729Z,7.67
2019-04-27T08:46:47.389Z,7.20
2019-04-27T08:49:20.249Z,8.17
2019-04-27T08:51:58.860Z,8.47
2019-04-27T08:54:26.849Z,7.93
2019-04-27T08:57:01.684Z,7.30
2019-04-27T08:59:33.855Z,9.43
2019-04-27T09:02:08.789Z,8.77
2019-04-27T09:04:41.556Z,10.10
2019-04-27T09:07:32.260Z,8.50
2019-04-27T09:10:08.648Z,9.13
2019-04-27T09:12:53.734Z,8.93
2019-04-27T09:15:26.318Z,8.47
2019-04-27T09:18:01.362Z,11.10
2019-04-27T09:20:42.422Z,9.93
2019-04-27T09:23:15.159Z,12.60
2019-04-27T09:25:49.449Z,9.47
2019-04-27T09:28:22.159Z,8.93
2019-04-27T09:30:54.779Z,8.53
2019-04-27T09:33:28.140Z,8.83
2019-04-27T09:36:01.401Z,8.10
2019-04-27T09:38:35.651Z,9.57
2019-04-27T09:41:07.938Z,8.67
2019-04-27T09:43:40.339Z,9.53
2019-04-27T09:46:12.861Z,8.60
2019-04-27T09:48:46.645Z,9.37
2019-04-27T09:51:19.042Z,10.23
2019-04-27T09:53:51.719Z,10.40
2019-04-27T09:56:26.067Z,9.60
2019-04-27T09:58:58.200Z,13.60
2019-04-27T10:01:30.795Z,10.53
2019-04-27T10:04:03.235Z,10.97
2019-04-27T10:06:36.313Z,12.10
2019-04-27T10:09:09.906Z,10.67
2019-04-27T10:11:42.545Z,11.00
2019-04-27T10:14:16.333Z,10.70
2019-04-27T10:16:48.705Z,10.70
2019-04-27T10:19:28.562Z,10.60
2019-04-27T10:21:55.325Z,10.67
2019-04-27T10:24:27.605Z,11.20
2019-04-27T10:27:01.085Z,10.00
2019-04-27T10:29:33.505Z,10.33
2019-04-27T10:32:06.421Z,9.90
2019-04-27T10:34:38.886Z,10.33
2019-04-27T10:37:11.310Z,11.30
2019-04-27T10:39:43.610Z,10.37
2019-04-27T10:42:16.225Z,9.17
2019-04-27T10:44:48.484Z,9.70
2019-04-27T10:47:20.885Z,8.97
2019-04-27T10:49:53.444Z,9.27
2019-04-27T10:52:26.005Z,8.17
2019-04-27T10:54:59.085Z,9.67
2019-04-27T10:57:31.486Z,7.77
2019-04-27T11:00:06.694Z,7.07
2019-04-27T11:02:39.575Z,7.47
2019-04-27T11:05:13.905Z,7.90
2019-04-27T11:07:46.585Z,7.37
2019-04-27T11:10:19.350Z,7.70
2019-04-27T11:12:51.732Z,7.97
2019-04-27T11:15:26.391Z,7.90
2019-04-27T11:17:58.950Z,7.97
2019-04-27T11:20:31.390Z,7.53
2019-04-27T11:23:09.321Z,6.80
2019-04-27T11:25:38.131Z,6.97
2019-04-27T11:28:10.710Z,7.00
2019-04-27T11:30:43.170Z,6.20
2019-04-27T11:33:16.221Z,6.73
2019-04-27T11:35:56.450Z,6.70
2019-04-27T11:38:28.970Z,7.33
2019-04-27T11:41:01.335Z,6.50
2019-04-27T11:43:34.005Z,6.70
2019-04-27T11:46:06.485Z,7.67
2019-04-27T11:48:38.985Z,7.37
2019-04-27T11:51:11.380Z,6.60
2019-04-27T11:53:43.955Z,6.93
2019-04-27T11:56:17.745Z,6.67
2019-04-27T11:58:50.255Z,7.17
2019-04-27T12:01:26.949Z,8.57
2019-04-27T12:04:00.574Z,6.60
2019-04-27T12:06:33.160Z,6.43
2019-04-27T12:09:07.715Z,5.30
2019-04-27T12:11:40.480Z,5.67
2019-04-27T12:14:12.760Z,6.00
2019-04-27T12:16:46.135Z,5.53
2019-04-27T12:19:19.140Z,5.40
2019-04-27T12:21:51.880Z,6.13
2019-04-27T12:24:24.604Z,6.00
2019-04-27T12:27:02.480Z,5.63
2019-04-27T12:29:42.735Z,4.50
2019-04-27T12:32:15.746Z,4.93
2019-04-27T12:34:49.856Z,4.93
2019-04-27T12:37:22.630Z,4.40
2019-04-27T12:39:57.647Z,4.97
2019-04-27T12:42:31.275Z,4.60
2019-04-27T12:45:04.901Z,5.17
2019-04-27T12:47:37.605Z,3.90
2019-04-27T12:50:14.366Z,4.77
2019-04-27T12:52:48.720Z,4.37
2019-04-27T12:55:30.504Z,5.53
2019-04-27T12:58:07.721Z,5.73
2019-04-27T13:00:41.938Z,4.43
2019-04-27T13:03:16.078Z,4.77
2019-04-27T13:05:49.106Z,5.10
2019-04-27T13:08:21.800Z,5.13
2019-04-27T13:10:55.367Z,4.47
2019-04-27T13:13:29.085Z,4.33
2019-04-27T13:16:01.800Z,3.70
2019-04-27T13:18:35.968Z,3.27
2019-04-27T13:21:08.465Z,3.37
2019-04-27T13:23:42.290Z,4.37
2019-04-27T13:26:16.462Z,4.63
2019-04-27T13:28:49.060Z,4.17
2019-04-27T13:31:21.854Z,5.70
2019-04-27T13:33:55.730Z,11.10
2019-04-27T13:36:28.540Z,5.47
2019-04-27T13:39:01.372Z,5.37
2019-04-27T13:41:36.031Z,7.10
2019-04-27T13:44:08.805Z,5.00
2019-04-27T13:46:59.265Z,7.20
2019-04-27T13:49:31.600Z,5.13
2019-04-27T13:52:06.151Z,5.20
2019-04-27T13:54:38.799Z,6.60
2019-04-27T13:57:11.190Z,7.77
2019-04-27T13:59:43.950Z,8.08
2019-04-27T14:02:16.505Z,8.78
2019-04-27T14:04:49.190Z,9.03
2019-04-27T14:07:21.715Z,5.97
2019-04-27T14:09:54.275Z,7.10
2019-04-27T14:12:28.400Z,8.45
2019-04-27T14:15:01.124Z,4.58
2019-04-27T14:17:33.825Z,6.90
2019-04-27T14:20:07.888Z,4.30
2019-04-27T14:22:41.865Z,4.60
2019-04-27T14:25:14.660Z,4.37
2019-04-27T14:27:48.887Z,5.17
2019-04-27T14:30:22.130Z,4.37
2019-04-27T14:32:54.605Z,7.90
2019-04-27T14:35:28.303Z,4.80
2019-04-27T14:38:01.105Z,7.07
2019-04-27T14:40:33.784Z,7.03
2019-04-27T14:43:08.387Z,9.80
2019-04-27T14:45:40.682Z,13.50
2019-04-27T14:48:13.375Z,22.07
2019-04-27T14:50:48.375Z,9.10
2019-04-27T14:53:20.735Z,6.90
2019-04-27T14:55:53.415Z,5.55
2019-04-27T14:58:26.085Z,7.33
2019-04-27T15:00:58.766Z,9.90
2019-04-27T15:03:31.376Z,6.20
2019-04-27T15:06:03.985Z,4.40
2019-04-27T15:08:38.388Z,3.50
2019-04-27T15:11:17.342Z,4.77
2019-04-27T15:13:48.079Z,3.87
2019-04-27T15:16:19.905Z,4.07
2019-04-27T15:19:02.371Z,5.40
2019-04-27T15:21:40.717Z,6.28
2019-04-27T15:24:09.921Z,6.45
2019-04-27T15:26:43.106Z,5.73
2019-04-27T15:29:20.602Z,8.00
2019-04-27T15:31:56.006Z,6.37
2019-04-27T15:34:35.642Z,6.62
2019-04-27T15:37:22.445Z,8.18
2019-04-27T15:40:12.679Z,6.92
2019-04-27T15:42:51.729Z,4.58
2019-04-27T15:45:24.325Z,5.43
2019-04-27T15:47:56.145Z,5.58
2019-04-27T15:50:32.201Z,3.62
2019-04-27T15:53:06.899Z,3.33
2019-04-27T15:55:39.611Z,4.53
2019-04-27T15:58:11.730Z,5.53
2019-04-27T16:00:44.350Z,3.97
2019-04-27T16:03:18.441Z,3.97
2019-04-27T16:05:51.340Z,4.43
2019-04-27T16:08:23.988Z,4.87
2019-04-27T16:10:56.680Z,3.20
2019-04-27T16:13:32.947Z,2.75
2019-04-27T16:16:03.920Z,3.40
2019-04-27T16:18:38.692Z,2.63
2019-04-27T16:21:11.239Z,3.40
2019-04-27T16:23:44.167Z,3.43
2019-04-27T16:26:18.337Z,3.50
2019-04-27T16:28:53.385Z,4.80
2019-04-27T16:31:31.475Z,3.50
2019-04-27T16:34:02.747Z,3.93
2019-04-27T16:36:37.755Z,3.20
2019-04-27T16:39:10.077Z,4.50
2019-04-27T16:41:44.380Z,3.60
2019-04-27T16:44:17.080Z,9.30
2019-04-27T16:46:49.695Z,3.30
2019-04-27T16:49:22.890Z,2.90
2019-04-27T16:51:55.325Z,3.27
2019-04-27T16:54:28.312Z,3.30
2019-04-27T16:57:05.163Z,3.63
2019-04-27T16:59:43.021Z,4.13
2019-04-27T17:02:09.336Z,3.50
2019-04-27T17:04:45.105Z,3.77
2019-04-27T17:07:18.806Z,3.43
2019-04-27T17:09:52.200Z,4.37
2019-04-27T17:12:29.836Z,3.50
2019-04-27T17:15:05.863Z,3.63
2019-04-27T17:17:42.704Z,3.27
2019-04-27T17:20:19.564Z,3.53
2019-04-27T17:22:53.011Z,3.97
2019-04-27T17:25:23.935Z,4.67
2019-04-27T17:28:04.145Z,3.80
2019-04-27T17:30:39.732Z,4.30
2019-04-27T17:33:11.905Z,5.07
2019-04-27T17:35:43.037Z,5.60
2019-04-27T17:38:15.908Z,4.77
2019-04-27T17:40:51.654Z,6.50
2019-04-27T17:43:23.731Z,9.57
2019-04-27T17:45:58.184Z,7.13
2019-04-27T17:48:32.225Z,4.70
2019-04-27T17:51:05.835Z,4.40
2019-04-27T17:53:38.580Z,5.50
2019-04-27T17:56:11.355Z,7.33
2019-04-27T17:58:43.945Z,7.33
2019-04-27T18:01:19.137Z,8.87
2019-04-27T18:03:59.070Z,9.07
2019-04-27T18:06:29.463Z,7.63
2019-04-27T18:09:03.302Z,5.07
2019-04-27T18:11:37.233Z,6.10
2019-04-27T18:14:14.341Z,6.97
2019-04-27T18:16:45.116Z,12.43
2019-04-27T18:19:23.016Z,11.07
2019-04-27T18:22:00.509Z,9.30
2019-04-27T18:24:49.537Z,12.60
2019-04-27T18:27:27.040Z,12.87
2019-04-27T18:30:03.394Z,11.73
2019-04-27T18:32:35.790Z,14.40
2019-04-27T18:35:08.650Z,8.87
2019-04-27T18:37:41.545Z,8.13
2019-04-27T18:40:14.421Z,9.83
2019-04-27T18:42:46.875Z,10.20
2019-04-27T18:45:19.601Z,24.33
2019-04-27T18:47:53.885Z,9.00
2019-04-27T18:50:34.340Z,8.33
2019-04-27T18:53:11.545Z,6.13
2019-04-27T18:55:44.410Z,12.93
2019-04-27T18:58:18.801Z,9.10
2019-04-27T19:00:52.090Z,11.47
2019-04-27T19:03:25.136Z,12.93
2019-04-27T19:05:58.293Z,13.03
2019-04-27T19:08:31.053Z,10.70
2019-04-27T19:11:05.028Z,9.23
2019-04-27T19:13:38.193Z,10.20
2019-04-27T19:16:12.237Z,13.10
2019-04-27T19:18:45.190Z,12.87
2019-04-27T19:21:20.026Z,28.63
2019-04-27T19:23:52.670Z,22.00
2019-04-27T19:26:42.360Z,22.23
2019-04-27T19:29:18.766Z,16.10
2019-04-27T19:31:52.850Z,16.77
2019-04-27T19:34:25.641Z,19.10
2019-04-27T19:36:59.231Z,24.00
2019-04-27T19:39:32.140Z,23.43
2019-04-27T19:42:04.990Z,20.93
2019-04-27T19:44:38.953Z,27.20
2019-04-27T19:47:11.861Z,30.27
2019-04-27T19:49:44.665Z,45.80
2019-04-27T19:52:18.315Z,42.83
2019-04-27T19:54:51.471Z,36.33
2019-04-27T19:57:33.145Z,41.53
2019-04-27T20:00:00.176Z,48.47
2019-04-27T20:02:33.125Z,43.97
2019-04-27T20:05:08.395Z,39.13
2019-04-27T20:07:41.165Z,34.67
2019-04-27T20:10:14.091Z,34.00
2019-04-27T20:12:46.925Z,34.17
2019-04-27T20:15:19.730Z,28.30
2019-04-27T20:17:52.375Z,24.80
2019-04-27T20:20:25.090Z,23.63
2019-04-27T20:22:57.955Z,22.13
2019-04-27T20:25:31.343Z,22.47
2019-04-27T20:28:04.281Z,23.80
2019-04-27T20:30:36.975Z,24.80
2019-04-27T20:33:11.070Z,25.07
2019-04-27T20:35:43.471Z,24.97
2019-04-27T20:38:16.250Z,25.17
2019-04-27T20:40:49.086Z,30.63
2019-04-27T20:43:24.484Z,34.53
2019-04-27T20:45:56.445Z,33.87
2019-04-27T20:48:31.172Z,32.53
2019-04-27T20:51:03.548Z,36.57
2019-04-27T20:53:46.945Z,44.23
2019-04-27T20:56:19.677Z,59.23
2019-04-27T20:58:52.536Z,56.37
2019-04-27T21:01:25.260Z,65.93
2019-04-27T21:04:00.927Z,55.87
2019-04-27T21:06:38.236Z,44.93
2019-04-27T21:09:14.320Z,44.33
2019-04-27T21:11:47.982Z,42.33
2019-04-27T21:14:21.761Z,35.40
2019-04-27T21:16:54.655Z,28.10
2019-04-27T21:19:27.060Z,22.73
2019-04-27T21:22:01.233Z,25.47
2019-04-27T21:24:34.244Z,25.00
2019-04-27T21:27:07.165Z,22.23
2019-04-27T21:29:39.560Z,22.00
2019-04-27T21:32:12.466Z,21.60
2019-04-27T21:34:45.235Z,20.07
2019-04-27T21:37:18.140Z,21.37
2019-04-27T21:39:53.297Z,21.07
2019-04-27T21:42:27.580Z,20.37
2019-04-27T21:45:01.253Z,18.83
2019-04-27T21:47:35.245Z,21.23
2019-04-27T21:50:09.730Z,21.17
2019-04-27T21:52:44.182Z,20.17
2019-04-27T21:55:18.695Z,16.63
2019-04-27T21:57:51.385Z,17.40
2019-04-27T22:00:42.760Z,17.60
2019-04-27T22:03:18.585Z,17.97
2019-04-27T22:05:51.576Z,21.00
2019-04-27T22:08:24.620Z,20.63
2019-04-27T22:10:57.395Z,20.73
2019-04-27T22:13:31.116Z,20.60
2019-04-27T22:16:03.885Z,28.93
2019-04-27T22:18:36.465Z,23.50
2019-04-27T22:21:11.226Z,53.40
2019-04-27T22:24:01.540Z,72.97
2019-04-27T22:26:34.370Z,83.97
2019-04-27T22:29:06.991Z,45.13
2019-04-27T22:31:41.539Z,35.27
2019-04-27T22:34:14.345Z,35.20
2019-04-27T22:36:46.810Z,38.73
2019-04-27T22:39:27.070Z,42.33
2019-04-27T22:42:17.635Z,44.20
2019-04-27T22:44:51.880Z,34.37
2019-04-27T22:47:24.625Z,29.00
2019-04-27T22:49:57.165Z,27.57
2019-04-27T22:52:30.772Z,28.83
2019-04-27T22:55:03.525Z,30.00
2019-04-27T22:57:37.750Z,29.80
2019-04-27T23:00:18.710Z,30.53
2019-04-27T23:02:54.625Z,25.93
2019-04-27T23:05:27.314Z,24.57
2019-04-27T23:08:01.775Z,25.70
2019-04-27T23:10:34.495Z,26.73
2019-04-27T23:13:08.370Z,27.27
2019-04-27T23:15:42.650Z,30.23
2019-04-27T23:18:15.120Z,34.17
2019-04-27T23:20:47.735Z,34.83
2019-04-27T23:23:21.808Z,34.23
2019-04-27T23:25:54.630Z,33.70
2019-04-27T23:28:27.295Z,31.33
2019-04-27T23:31:02.481Z,31.57
2019-04-27T23:33:35.415Z,32.27
2019-04-27T23:36:08.135Z,31.50
2019-04-27T23:38:40.914Z,27.90
2019-04-27T23:41:13.751Z,31.07
2019-04-27T23:43:46.232Z,28.80
2019-04-27T23:46:18.981Z,27.93
2019-04-27T23:48:53.784Z,27.77
2019-04-27T23:51:30.530Z,29.23
2019-04-27T23:54:04.330Z,32.43
2019-04-27T23:56:37.050Z,33.00
2019-04-27T23:59:09.806Z,36.53
